Terminal Aerodrome Forecast
Issued by NWS

Home | Current Version | Previous Version | Text Only | Print | Product List | Glossary On
Versions: 1 2 3 4 5 6 7 8 9 10 11 12 13
000
FTUS45 KGGW 130500
TAFOLF
TAF
KOLF 130520Z 1306/1406 36012KT P6SM BKN030
     FM130900 32008KT P6SM FEW060 SCT150
     FM131700 32013KT P6SM SCT080=

USA.gov is the U.S. government's official web portal to all federal, state and local government web resources and services.